Time;durP1;ratioP1;P1;durP2;ratioP2;P2;SDS_P1;SDS_P2;PMS_P1;PMS_P2;Temp;Humidity;BMP_temperature;BMP_pressure;BME280_temperature;BME280_humidity;BME280_pressure;Samples;Min_cycle;Max_cycle;Signal;HPM_P1;HPM_P2
2023/07/03 00:00:29;;;;;;;3.40;3.10;;;24.00;99.90;;;;;;5107748;28;20172;-78
2023/07/03 00:02:55;;;;;;;5.10;3.50;;;24.00;99.90;;;;;;5107578;28;20218;-78
2023/07/03 00:05:23;;;;;;;4.27;2.93;;;24.00;99.90;;;;;;5107504;28;20175;-78
2023/07/03 00:07:49;;;;;;;4.43;3.33;;;23.90;99.90;;;;;;5108007;28;20279;-78
2023/07/03 00:10:15;;;;;;;3.83;3.03;;;23.90;99.90;;;;;;5107437;28;20510;-78
2023/07/03 00:12:41;;;;;;;3.87;3.20;;;23.90;99.90;;;;;;5105814;28;20951;-78
2023/07/03 00:15:07;;;;;;;4.17;3.77;;;23.80;99.90;;;;;;5106416;28;20433;-78
2023/07/03 00:17:33;;;;;;;5.63;3.97;;;23.80;99.90;;;;;;5106180;28;20433;-78
2023/07/03 00:19:59;;;;;;;3.20;2.97;;;23.80;99.90;;;;;;5107433;28;20416;-79
2023/07/03 00:22:24;;;;;;;4.30;3.90;;;23.70;99.90;;;;;;5106204;28;20217;-77
2023/07/03 00:24:50;;;;;;;3.80;3.40;;;23.70;99.90;;;;;;5106034;28;20177;-78
2023/07/03 00:27:16;;;;;;;3.67;3.00;;;23.70;99.90;;;;;;5107503;28;20455;-78
2023/07/03 00:29:42;;;;;;;3.83;3.50;;;23.60;99.90;;;;;;5106059;28;20188;-78
2023/07/03 00:32:08;;;;;;;4.40;3.70;;;23.60;99.90;;;;;;5105968;28;20893;-78
2023/07/03 00:34:34;;;;;;;4.93;3.80;;;23.60;99.90;;;;;;5107440;28;20533;-79
2023/07/03 00:36:59;;;;;;;4.20;3.23;;;23.60;99.90;;;;;;5107400;28;20214;-78
2023/07/03 00:39:25;;;;;;;5.23;3.93;;;23.60;99.90;;;;;;5105614;28;20199;-78
2023/07/03 00:41:51;;;;;;;6.33;3.33;;;23.60;99.90;;;;;;5106111;28;20216;-78
2023/07/03 00:44:18;;;;;;;8.10;4.60;;;23.60;99.90;;;;;;5107292;28;20499;-78
2023/07/03 00:46:47;;;;;;;5.83;3.73;;;23.50;99.90;;;;;;5106186;28;20664;-78
2023/07/03 00:49:14;;;;;;;4.50;3.83;;;23.50;99.90;;;;;;5105848;28;20421;-78
2023/07/03 00:51:46;;;;;;;4.50;3.60;;;23.50;99.90;;;;;;5105975;28;20500;-78
2023/07/03 00:54:12;;;;;;;7.30;4.07;;;23.50;99.90;;;;;;5107329;28;20388;-78
2023/07/03 00:56:37;;;;;;;3.60;3.30;;;23.40;99.90;;;;;;5110298;28;20794;-78
2023/07/03 00:59:04;;;;;;;7.03;4.00;;;23.50;99.90;;;;;;5111501;28;20176;-78
2023/07/03 01:01:43;;;;;;;6.60;4.03;;;23.50;99.90;;;;;;5110804;28;20200;-78
2023/07/03 01:04:14;;;;;;;4.20;3.50;;;23.40;99.90;;;;;;5110893;28;20792;-78
2023/07/03 01:06:54;;;;;;;5.20;4.43;;;23.40;99.90;;;;;;5110518;28;20443;-79
2023/07/03 01:09:23;;;;;;;6.80;4.00;;;23.30;99.90;;;;;;5110637;28;20416;-79
2023/07/03 01:11:50;;;;;;;6.17;4.00;;;23.30;99.90;;;;;;5110388;28;20436;-78
2023/07/03 01:14:19;;;;;;;4.33;3.63;;;23.30;99.90;;;;;;5109201;28;20429;-78
2023/07/03 01:16:48;;;;;;;4.20;3.70;;;23.30;99.90;;;;;;5109772;28;20827;-78
2023/07/03 01:19:31;;;;;;;5.23;4.40;;;23.20;99.90;;;;;;5110676;28;20408;-78
2023/07/03 01:22:06;;;;;;;5.30;4.00;;;23.10;99.90;;;;;;5109093;28;20996;-78
2023/07/03 01:24:49;;;;;;;4.13;3.70;;;23.00;99.90;;;;;;5109035;28;20432;-78
2023/07/03 01:27:20;;;;;;;6.00;4.60;;;23.00;99.90;;;;;;5109167;28;20436;-78
2023/07/03 01:29:49;;;;;;;8.33;5.30;;;22.90;99.90;;;;;;5108977;28;20432;-78
2023/07/03 01:32:15;;;;;;;5.27;3.80;;;22.80;99.90;;;;;;5110488;28;20452;-78
2023/07/03 01:34:45;;;;;;;6.23;4.60;;;22.90;99.90;;;;;;5109074;28;20412;-79
2023/07/03 01:37:12;;;;;;;6.47;4.17;;;22.80;99.90;;;;;;5110301;28;21001;-78
2023/07/03 01:39:39;;;;;;;6.87;4.37;;;22.90;99.90;;;;;;5110265;28;20419;-78
2023/07/03 01:42:07;;;;;;;6.40;4.23;;;22.80;99.90;;;;;;5108906;28;20830;-78
2023/07/03 01:44:32;;;;;;;5.40;4.40;;;22.80;99.90;;;;;;5108698;28;21080;-78
2023/07/03 01:47:07;;;;;;;5.10;4.30;;;22.80;99.90;;;;;;5109066;28;20432;-79
2023/07/03 01:49:33;;;;;;;9.70;5.17;;;22.70;99.90;;;;;;5108387;28;20193;-78
2023/07/03 01:52:20;;;;;;;5.00;4.00;;;22.60;99.90;;;;;;5108543;28;20546;-78
2023/07/03 01:55:11;;;;;;;5.20;3.80;;;22.50;99.90;;;;;;5108710;28;20786;-78
2023/07/03 01:57:46;;;;;;;6.67;3.97;;;22.40;99.90;;;;;;5108710;28;20481;-78
2023/07/03 02:00:18;;;;;;;4.83;4.10;;;22.40;99.90;;;;;;5110083;28;20768;-78
2023/07/03 02:02:48;;;;;;;5.13;4.20;;;22.30;99.90;;;;;;5109737;28;20459;-78
2023/07/03 02:05:17;;;;;;;4.50;4.10;;;22.20;99.90;;;;;;5108028;28;20959;-78
2023/07/03 02:07:47;;;;;;;6.33;4.53;;;22.20;99.90;;;;;;5109147;28;20435;-78
2023/07/03 02:10:13;;;;;;;5.13;4.50;;;22.20;99.90;;;;;;5109456;28;20569;-78
2023/07/03 02:12:43;;;;;;;6.53;4.80;;;22.20;99.90;;;;;;5108904;28;20968;-78
2023/07/03 02:15:10;;;;;;;4.80;4.40;;;22.20;99.90;;;;;;5108153;28;20424;-78
2023/07/03 02:17:36;;;;;;;4.70;4.20;;;22.30;99.90;;;;;;5108662;28;20952;-78
2023/07/03 02:20:02;;;;;;;5.13;4.63;;;22.30;99.90;;;;;;5109348;28;20426;-78
2023/07/03 02:22:28;;;;;;;6.00;4.57;;;22.20;99.90;;;;;;5109107;28;20797;-78
2023/07/03 02:24:53;;;;;;;5.40;4.90;;;22.20;99.90;;;;;;5109172;28;20408;-77
2023/07/03 02:27:19;;;;;;;5.83;4.87;;;22.10;99.90;;;;;;5107653;28;20602;-78
2023/07/03 02:29:46;;;;;;;4.70;4.30;;;22.10;99.90;;;;;;5109367;28;20339;-78
2023/07/03 02:32:12;;;;;;;6.57;5.10;;;22.10;99.90;;;;;;5109303;28;20706;-77
2023/07/03 02:34:38;;;;;;;5.47;4.50;;;22.00;99.90;;;;;;5108971;28;20502;-78
2023/07/03 02:37:05;;;;;;;6.60;5.23;;;21.90;99.90;;;;;;5108959;28;20398;-78
2023/07/03 02:39:31;;;;;;;6.87;4.60;;;21.90;99.90;;;;;;5107296;28;20519;-78
2023/07/03 02:41:57;;;;;;;5.43;4.93;;;21.80;99.90;;;;;;5107675;28;20478;-78
2023/07/03 02:44:22;;;;;;;6.37;5.77;;;21.80;99.90;;;;;;5107441;28;20416;-78
2023/07/03 02:46:48;;;;;;;6.43;4.93;;;21.80;99.90;;;;;;5109291;28;20631;-78
2023/07/03 02:49:14;;;;;;;5.10;4.60;;;21.80;99.90;;;;;;5109100;28;20257;-78
2023/07/03 02:51:40;;;;;;;5.10;4.63;;;21.80;99.90;;;;;;5108426;28;20236;-78
2023/07/03 02:54:05;;;;;;;7.43;5.60;;;21.70;99.90;;;;;;5107172;28;20491;-78
2023/07/03 02:56:31;;;;;;;7.30;4.90;;;21.70;99.90;;;;;;5108782;28;20203;-78
2023/07/03 02:58:57;;;;;;;6.40;5.23;;;21.70;99.90;;;;;;5108500;28;20171;-78
2023/07/03 03:01:23;;;;;;;10.43;5.47;;;21.70;99.90;;;;;;5107064;28;20187;-78
2023/07/03 03:03:48;;;;;;;6.60;5.23;;;21.60;99.90;;;;;;5107065;28;20179;-78
2023/07/03 03:06:14;;;;;;;5.73;4.90;;;21.70;99.90;;;;;;5108621;28;20640;-78
2023/07/03 03:08:39;;;;;;;5.47;4.70;;;21.70;99.90;;;;;;5108546;28;20176;-78
2023/07/03 03:11:06;;;;;;;7.00;5.17;;;21.70;99.90;;;;;;5108196;28;20215;-78
2023/07/03 03:13:32;;;;;;;6.90;5.30;;;21.60;99.90;;;;;;5106626;28;20321;-78
2023/07/03 03:15:58;;;;;;;6.00;4.77;;;21.50;99.90;;;;;;5108421;28;20748;-78
2023/07/03 03:18:24;;;;;;;7.87;6.07;;;21.40;99.90;;;;;;5106620;27;20410;-78
2023/07/03 03:20:49;;;;;;;8.40;5.80;;;21.40;99.90;;;;;;5106922;28;20542;-78
2023/07/03 03:23:15;;;;;;;5.60;4.90;;;21.40;99.90;;;;;;5108584;28;20464;-78
2023/07/03 03:25:42;;;;;;;6.40;5.30;;;21.40;99.90;;;;;;5108059;28;20179;-78
2023/07/03 03:28:08;;;;;;;8.13;5.30;;;21.40;99.90;;;;;;5107026;28;20210;-78
2023/07/03 03:30:33;;;;;;;4.73;4.30;;;21.40;99.90;;;;;;5106594;28;20897;-78
2023/07/03 03:32:59;;;;;;;7.50;5.27;;;21.40;99.90;;;;;;5106721;28;20522;-78
2023/07/03 03:35:25;;;;;;;6.90;5.57;;;21.40;99.90;;;;;;5108059;28;20179;-78
2023/07/03 03:37:50;;;;;;;7.60;5.37;;;21.40;99.90;;;;;;5106234;28;20305;-78
2023/07/03 03:40:16;;;;;;;6.97;5.70;;;21.40;99.90;;;;;;5106398;28;20206;-78
2023/07/03 03:42:42;;;;;;;8.17;5.83;;;21.50;99.90;;;;;;5106433;28;20587;-79
2023/07/03 03:45:07;;;;;;;6.03;5.53;;;21.50;99.90;;;;;;5107940;28;20181;-79
2023/07/03 03:47:34;;;;;;;5.90;5.13;;;21.60;99.90;;;;;;5106193;28;20357;-78
2023/07/03 03:50:00;;;;;;;6.00;5.40;;;21.60;99.90;;;;;;5105466;28;20851;-78
2023/07/03 03:52:26;;;;;;;8.13;6.27;;;21.60;99.90;;;;;;5107570;28;20466;-79
2023/07/03 03:54:52;;;;;;;6.43;5.77;;;21.50;99.90;;;;;;5107648;28;20440;-78
2023/07/03 03:57:18;;;;;;;8.07;6.53;;;21.50;99.90;;;;;;5107850;28;20451;-78
2023/07/03 03:59:43;;;;;;;6.83;6.20;;;21.40;99.90;;;;;;5107536;28;20807;-78
2023/07/03 04:02:09;;;;;;;8.70;6.00;;;21.40;99.90;;;;;;5107711;28;20378;-78
2023/07/03 04:04:34;;;;;;;7.33;5.80;;;21.40;99.90;;;;;;5105993;28;20648;-78
2023/07/03 04:07:01;;;;;;;6.50;5.20;;;21.40;99.90;;;;;;5107330;28;20299;-79
2023/07/03 04:09:27;;;;;;;7.93;5.07;;;21.40;99.90;;;;;;5105934;28;20182;-79
2023/07/03 04:11:53;;;;;;;7.20;6.10;;;21.50;99.90;;;;;;5107727;28;20943;-79
2023/07/03 04:14:18;;;;;;;6.57;5.50;;;21.50;99.90;;;;;;5106687;28;20358;-79
2023/07/03 04:16:46;;;;;;;6.03;5.43;;;21.60;99.90;;;;;;5107405;28;20244;-79
2023/07/03 04:19:12;;;;;;;11.23;6.03;;;21.70;99.90;;;;;;5105243;28;20548;-79
2023/07/03 04:21:39;;;;;;;6.67;5.40;;;21.70;99.90;;;;;;5106607;28;20429;-79
2023/07/03 04:24:05;;;;;;;22.07;14.40;;;21.80;99.90;;;;;;5105959;28;20393;-79
2023/07/03 04:26:31;;;;;;;10.20;8.63;;;21.80;99.90;;;;;;5107165;28;20905;-78
2023/07/03 04:28:58;;;;;;;14.67;8.93;;;21.80;99.90;;;;;;5107536;28;20396;-78
2023/07/03 04:31:24;;;;;;;6.27;5.67;;;21.80;99.90;;;;;;5109412;27;20438;-78
2023/07/03 04:33:49;;;;;;;11.00;5.97;;;21.90;99.90;;;;;;5122449;27;20408;-78
2023/07/03 04:36:20;;;;;;;6.90;6.00;;;21.90;99.90;;;;;;5119322;27;20431;-79
2023/07/03 04:38:46;;;;;;;8.20;6.03;;;22.00;99.90;;;;;;5119854;27;20663;-78
2023/07/03 04:41:12;;;;;;;7.50;5.77;;;22.00;99.90;;;;;;5120370;27;20454;-78
2023/07/03 04:43:48;;;;;;;7.07;6.20;;;22.10;99.90;;;;;;5119825;27;20207;-78
2023/07/03 04:46:13;;;;;;;7.80;6.50;;;22.20;99.90;;;;;;5120186;27;20510;-79
2023/07/03 04:48:39;;;;;;;10.40;6.13;;;22.20;99.90;;;;;;5121034;27;20910;-78
2023/07/03 04:51:05;;;;;;;10.10;6.37;;;22.30;99.90;;;;;;5120124;27;20985;-78
2023/07/03 04:53:37;;;;;;;7.17;5.33;;;22.30;99.90;;;;;;5119874;27;20640;-78
2023/07/03 04:56:03;;;;;;;5.83;5.30;;;22.40;99.90;;;;;;5130068;27;20195;-79
2023/07/03 04:58:29;;;;;;;7.77;6.00;;;22.40;99.90;;;;;;5129805;27;20423;-79
2023/07/03 05:00:55;;;;;;;11.53;5.80;;;22.50;99.90;;;;;;5121313;27;20425;-78
2023/07/03 05:03:20;;;;;;;8.10;5.27;;;22.60;99.90;;;;;;5119446;27;20221;-78
2023/07/03 05:05:46;;;;;;;6.40;5.30;;;22.60;99.90;;;;;;5123994;27;20177;-78
2023/07/03 05:08:12;;;;;;;9.20;5.70;;;22.70;99.90;;;;;;5130929;27;20191;-79
2023/07/03 05:10:37;;;;;;;7.27;5.90;;;22.70;99.90;;;;;;5130653;27;20175;-79
2023/07/03 05:13:03;;;;;;;7.47;6.43;;;22.80;99.90;;;;;;5130152;27;20241;-78
2023/07/03 05:15:31;;;;;;;8.30;5.70;;;22.90;99.90;;;;;;5128945;27;20177;-79
2023/07/03 05:17:56;;;;;;;7.60;5.77;;;22.90;99.90;;;;;;5130837;27;20614;-78
2023/07/03 05:20:22;;;;;;;9.97;6.67;;;23.00;99.90;;;;;;5129733;27;20411;-79
2023/07/03 05:22:49;;;;;;;9.47;6.73;;;23.10;99.90;;;;;;5127812;27;20690;-77
2023/07/03 05:25:15;;;;;;;7.30;5.93;;;23.10;99.90;;;;;;5127592;27;20439;-78
2023/07/03 05:27:41;;;;;;;10.27;6.10;;;23.20;99.90;;;;;;5127699;27;20425;-79
2023/07/03 05:30:09;;;;;;;7.57;5.93;;;23.30;99.90;;;;;;5128690;27;21070;-78
2023/07/03 05:32:35;;;;;;;7.87;5.53;;;23.30;99.90;;;;;;5125294;27;20199;-78
2023/07/03 05:35:03;;;;;;;9.37;6.57;;;23.40;99.90;;;;;;5125628;27;20941;-78
2023/07/03 05:37:29;;;;;;;11.23;6.83;;;23.40;99.90;;;;;;5126506;27;20481;-79
2023/07/03 05:39:55;;;;;;;7.80;6.67;;;23.50;99.90;;;;;;5126931;27;20424;-78
2023/07/03 05:42:22;;;;;;;7.50;6.57;;;23.50;99.90;;;;;;5127031;27;20219;-79
2023/07/03 05:44:48;;;;;;;5.60;5.00;;;23.60;99.90;;;;;;5130315;27;20410;-79
2023/07/03 05:47:15;;;;;;;7.30;6.00;;;23.60;99.90;;;;;;5129471;27;20451;-78
2023/07/03 05:49:41;;;;;;;8.57;5.70;;;23.60;99.90;;;;;;5128812;27;20423;-79
2023/07/03 05:52:07;;;;;;;6.70;5.43;;;23.60;99.90;;;;;;5129250;27;20475;-78
2023/07/03 05:54:33;;;;;;;8.00;6.07;;;23.70;99.90;;;;;;5128460;27;20432;-79
2023/07/03 05:57:04;;;;;;;9.10;5.93;;;23.80;99.90;;;;;;5121762;27;20819;-79
2023/07/03 05:59:30;;;;;;;7.83;6.43;;;23.80;99.90;;;;;;5121348;27;20223;-79
2023/07/03 06:01:57;;;;;;;9.53;6.00;;;23.80;99.90;;;;;;5119196;27;20924;-78
2023/07/03 06:04:24;;;;;;;8.47;6.50;;;23.90;99.90;;;;;;5114938;27;20438;-78
2023/07/03 06:06:53;;;;;;;6.10;5.50;;;24.00;99.90;;;;;;5101584;27;21245;-79
2023/07/03 06:09:18;;;;;;;9.83;5.50;;;24.10;99.90;;;;;;5122886;27;21007;-78
2023/07/03 06:11:45;;;;;;;6.20;5.57;;;24.20;99.90;;;;;;5122077;27;20545;-78
2023/07/03 06:14:16;;;;;;;9.50;6.07;;;24.20;99.90;;;;;;5118562;27;20857;-78
2023/07/03 06:16:42;;;;;;;12.83;5.77;;;24.20;99.90;;;;;;5112498;27;20544;-79
2023/07/03 06:19:09;;;;;;;9.50;5.47;;;24.30;99.90;;;;;;5116985;27;20467;-79
2023/07/03 06:21:35;;;;;;;7.77;5.97;;;24.30;99.90;;;;;;5119886;27;20446;-78
2023/07/03 06:24:01;;;;;;;8.70;5.87;;;24.30;99.90;;;;;;5120880;27;20448;-78
2023/07/03 06:26:29;;;;;;;5.93;5.00;;;24.30;99.90;;;;;;5117810;27;20228;-78
2023/07/03 06:28:55;;;;;;;8.90;6.20;;;24.40;99.90;;;;;;5125575;27;20185;-79
2023/07/03 06:31:21;;;;;;;10.17;5.63;;;24.50;99.90;;;;;;5123305;27;20787;-79
2023/07/03 06:33:47;;;;;;;7.97;6.10;;;24.50;99.90;;;;;;5118809;27;20269;-79
2023/07/03 06:36:14;;;;;;;296.67;195.43;;;24.60;99.90;;;;;;5103608;28;20179;-79
2023/07/03 06:38:40;;;;;;;10.97;8.47;;;24.70;99.90;;;;;;5121099;27;20535;-78
2023/07/03 06:41:05;;;;;;;7.30;6.30;;;24.70;99.90;;;;;;5123629;27;20429;-80
2023/07/03 06:43:31;;;;;;;8.43;5.80;;;24.70;99.90;;;;;;5116541;27;20207;-81
2023/07/03 06:45:57;;;;;;;7.27;5.57;;;24.90;99.90;;;;;;5114522;27;20191;-79
2023/07/03 06:48:22;;;;;;;6.87;5.40;;;25.00;99.90;;;;;;5117592;27;20202;-80
2023/07/03 06:50:48;;;;;;;6.93;5.00;;;25.00;99.90;;;;;;5111707;27;20230;-80
2023/07/03 06:53:14;;;;;;;7.40;5.60;;;25.20;99.90;;;;;;5108571;27;20206;-81
2023/07/03 06:55:40;;;;;;;6.20;5.17;;;25.30;99.90;;;;;;5109901;27;20521;-81
2023/07/03 06:58:06;;;;;;;7.40;5.53;;;25.30;99.90;;;;;;5116113;27;20448;-78
2023/07/03 07:00:32;;;;;;;6.70;4.30;;;25.20;99.90;;;;;;5121979;27;20194;-78
2023/07/03 07:02:57;;;;;;;7.57;5.63;;;25.30;99.90;;;;;;5115793;27;20492;-78
2023/07/03 07:05:26;;;;;;;9.97;5.53;;;25.40;99.90;;;;;;5118397;27;20463;-78
2023/07/03 07:07:52;;;;;;;5.87;5.37;;;25.40;99.90;;;;;;5120756;27;20357;-77
2023/07/03 07:10:17;;;;;;;11.37;7.10;;;25.50;99.90;;;;;;5118309;27;20606;-78
2023/07/03 07:12:44;;;;;;;7.90;5.67;;;25.50;99.90;;;;;;5125064;27;20814;-78
2023/07/03 07:15:09;;;;;;;7.00;4.87;;;25.60;99.90;;;;;;5123497;27;20215;-78
2023/07/03 07:17:35;;;;;;;6.17;5.57;;;25.60;99.90;;;;;;5122930;27;20478;-78
2023/07/03 07:20:01;;;;;;;6.83;5.23;;;25.70;99.90;;;;;;5120196;27;20443;-78
2023/07/03 07:22:26;;;;;;;7.37;5.20;;;25.80;99.90;;;;;;5121704;27;20230;-78
2023/07/03 07:24:52;;;;;;;7.40;6.20;;;25.90;99.90;;;;;;5123279;27;20537;-78
2023/07/03 07:27:18;;;;;;;9.10;5.07;;;25.90;99.90;;;;;;5125942;27;20206;-77
2023/07/03 07:29:43;;;;;;;7.20;4.60;;;26.00;99.90;;;;;;5121178;27;20183;-78
2023/07/03 07:32:09;;;;;;;7.20;5.10;;;26.00;99.90;;;;;;5123316;27;20724;-78
2023/07/03 07:34:35;;;;;;;9.07;4.80;;;26.10;99.90;;;;;;5123200;27;20187;-78
2023/07/03 07:37:00;;;;;;;7.77;4.90;;;26.10;99.90;;;;;;5119350;27;20246;-78
2023/07/03 07:39:29;;;;;;;6.80;5.00;;;26.10;99.90;;;;;;5118257;27;20190;-78
2023/07/03 07:41:56;;;;;;;6.23;4.50;;;26.10;99.90;;;;;;5115535;27;20199;-78
2023/07/03 07:44:22;;;;;;;5.87;4.60;;;26.20;99.90;;;;;;5120568;27;20987;-77
2023/07/03 07:46:47;;;;;;;6.50;4.80;;;26.20;99.90;;;;;;5116435;27;20435;-78
2023/07/03 07:49:13;;;;;;;6.70;5.20;;;26.30;99.90;;;;;;5125240;27;20273;-78
2023/07/03 07:51:40;;;;;;;11.80;5.07;;;26.40;99.90;;;;;;5124784;27;20227;-78
2023/07/03 07:54:06;;;;;;;6.47;5.30;;;26.50;99.90;;;;;;5121792;27;20183;-78
2023/07/03 07:56:32;;;;;;;7.77;5.13;;;26.60;99.90;;;;;;5115730;27;20508;-77
2023/07/03 07:58:58;;;;;;;62.70;47.37;;;26.70;99.90;;;;;;5120790;27;20444;-78
2023/07/03 08:01:23;;;;;;;9.33;5.50;;;26.70;99.90;;;;;;5118943;27;20417;-78
2023/07/03 08:03:49;;;;;;;7.40;5.57;;;26.80;99.90;;;;;;5124154;28;21164;-77
2023/07/03 08:06:15;;;;;;;6.43;4.90;;;26.90;99.90;;;;;;5109520;28;20264;-78
2023/07/03 08:08:42;;;;;;;6.93;5.00;;;26.90;99.90;;;;;;5113260;28;20229;-78
2023/07/03 08:11:09;;;;;;;5.73;4.27;;;27.00;99.90;;;;;;5116582;28;20521;-78
2023/07/03 08:13:38;;;;;;;5.83;5.20;;;27.10;99.90;;;;;;5113931;28;20423;-78
2023/07/03 08:16:05;;;;;;;5.37;4.87;;;27.00;99.90;;;;;;5120681;28;20466;-78
2023/07/03 08:18:31;;;;;;;5.87;5.27;;;27.10;99.90;;;;;;5115678;28;20792;-78
2023/07/03 08:20:57;;;;;;;5.40;4.83;;;27.20;99.90;;;;;;5120177;28;20539;-78
2023/07/03 08:23:23;;;;;;;6.13;5.10;;;27.20;99.90;;;;;;5118638;28;20553;-78
2023/07/03 08:25:50;;;;;;;6.00;4.93;;;26.90;99.90;;;;;;5119287;28;20191;-77
2023/07/03 08:28:16;;;;;;;7.03;5.20;;;27.10;99.90;;;;;;5122655;28;20543;-78
2023/07/03 08:30:42;;;;;;;5.73;4.93;;;27.30;99.20;;;;;;5118592;28;20428;-78
2023/07/03 08:33:07;;;;;;;7.60;5.10;;;27.30;99.90;;;;;;5118916;28;20819;-78
2023/07/03 08:35:33;;;;;;;7.23;5.00;;;27.50;98.80;;;;;;5117328;28;20279;-78
2023/07/03 08:38:00;;;;;;;6.63;5.00;;;27.60;98.50;;;;;;5101715;28;20190;-78
2023/07/03 08:40:26;;;;;;;7.33;5.50;;;27.60;99.00;;;;;;5117517;28;20687;-78
2023/07/03 08:42:55;;;;;;;6.43;5.60;;;27.70;98.90;;;;;;5119488;28;20508;-78
2023/07/03 08:45:27;;;;;;;6.67;4.87;;;27.80;98.80;;;;;;5116620;28;20435;-78
2023/07/03 08:47:55;;;;;;;6.23;5.63;;;27.80;99.80;;;;;;5119175;28;20444;-77
2023/07/03 08:50:22;;;;;;;5.93;4.97;;;27.70;99.90;;;;;;5109022;28;20981;-78
2023/07/03 08:53:02;;;;;;;7.33;5.20;;;27.70;99.80;;;;;;5109430;28;20464;-78
2023/07/03 08:55:34;;;;;;;5.60;4.63;;;27.90;99.40;;;;;;5114023;28;20538;-78
2023/07/03 08:58:01;;;;;;;6.53;5.40;;;27.90;99.70;;;;;;5118041;28;20479;-78
2023/07/03 09:00:29;;;;;;;6.23;5.20;;;28.00;99.90;;;;;;5113270;28;20440;-78
2023/07/03 09:03:03;;;;;;;4.70;4.20;;;28.10;99.60;;;;;;5107152;27;20801;-78
2023/07/03 09:05:35;;;;;;;6.83;4.93;;;28.10;99.90;;;;;;5116411;28;20979;-78
2023/07/03 09:08:05;;;;;;;6.60;4.83;;;28.10;99.80;;;;;;5115762;27;20450;-78
2023/07/03 09:10:45;;;;;;;6.00;5.40;;;28.20;98.70;;;;;;5110858;28;20838;-78
2023/07/03 09:13:17;;;;;;;8.50;5.03;;;28.40;96.50;;;;;;5121540;27;20483;-78
2023/07/03 09:15:45;;;;;;;6.00;4.70;;;28.50;97.30;;;;;;5108370;28;20452;-78
2023/07/03 09:18:18;;;;;;;4.90;3.80;;;28.60;97.30;;;;;;5121587;27;20864;-78
2023/07/03 09:20:44;;;;;;;4.43;3.90;;;28.70;96.70;;;;;;5115715;27;20474;-78
2023/07/03 09:23:17;;;;;;;5.73;4.47;;;28.80;97.00;;;;;;5122080;27;20507;-78
2023/07/03 09:26:02;;;;;;;4.57;3.93;;;28.80;97.90;;;;;;5116571;27;20587;-77
2023/07/03 09:28:28;;;;;;;6.03;3.80;;;28.40;98.80;;;;;;5137799;27;20457;-78
2023/07/03 09:30:54;;;;;;;3.77;3.23;;;28.30;99.10;;;;;;5112618;27;20442;-78
2023/07/03 09:33:20;;;;;;;4.97;3.53;;;28.30;97.80;;;;;;5115274;27;20452;-78
2023/07/03 09:35:47;;;;;;;4.40;4.00;;;28.50;97.50;;;;;;5119430;27;20881;-78
2023/07/03 09:38:21;;;;;;;4.57;3.73;;;28.70;98.20;;;;;;5119337;27;20457;-78
2023/07/03 09:40:50;;;;;;;7.13;4.00;;;28.80;98.20;;;;;;5120686;27;20445;-78
2023/07/03 09:43:21;;;;;;;6.03;3.60;;;28.70;98.40;;;;;;5117577;27;20476;-78
2023/07/03 09:45:49;;;;;;;5.07;3.60;;;28.60;98.50;;;;;;5115809;27;20437;-78
2023/07/03 09:48:25;;;;;;;3.80;3.50;;;28.60;94.90;;;;;;5125407;27;20845;-78
2023/07/03 09:50:52;;;;;;;4.20;3.80;;;28.70;97.60;;;;;;5123502;27;20482;-78
2023/07/03 09:53:20;;;;;;;3.93;3.63;;;28.60;98.30;;;;;;5125055;27;20493;-79
2023/07/03 09:55:55;;;;;;;6.70;4.33;;;28.60;98.20;;;;;;5119701;27;20440;-78
2023/07/03 09:58:24;;;;;;;4.20;3.90;;;28.50;98.60;;;;;;5120635;27;20527;-79
2023/07/03 10:00:54;;;;;;;5.00;3.50;;;28.80;96.40;;;;;;5114966;27;20450;-77
2023/07/03 10:03:26;;;;;;;18.17;15.13;;;28.60;98.40;;;;;;5120863;27;20511;-78
2023/07/03 10:05:53;;;;;;;5.33;4.53;;;28.70;95.70;;;;;;5125239;27;20727;-78
2023/07/03 10:08:26;;;;;;;4.00;3.40;;;28.60;97.80;;;;;;5114755;27;20545;-78
2023/07/03 10:10:55;;;;;;;3.07;2.87;;;28.50;98.30;;;;;;5117077;27;21039;-78
2023/07/03 10:13:28;;;;;;;3.70;2.80;;;28.40;98.10;;;;;;5117806;27;20979;-78
2023/07/03 10:15:55;;;;;;;4.87;2.90;;;28.50;98.30;;;;;;5112212;27;20466;-78
2023/07/03 10:18:32;;;;;;;3.90;3.00;;;28.40;98.30;;;;;;5122761;27;21211;-78
2023/07/03 10:21:02;;;;;;;3.20;2.90;;;28.50;97.80;;;;;;5120614;27;20587;-78
2023/07/03 10:23:31;;;;;;;3.63;3.30;;;28.70;96.70;;;;;;5112062;27;20561;-78
2023/07/03 10:26:04;;;;;;;3.10;2.80;;;28.60;98.30;;;;;;5115149;27;20548;-78
2023/07/03 10:28:36;;;;;;;3.53;3.10;;;28.70;96.60;;;;;;5119741;27;20426;-79
2023/07/03 10:31:08;;;;;;;4.07;3.50;;;28.90;94.80;;;;;;5116346;27;21038;-78
2023/07/03 10:33:42;;;;;;;5.60;4.00;;;29.20;94.90;;;;;;5115512;27;20498;-78
2023/07/03 10:36:15;;;;;;;5.10;4.00;;;29.40;93.70;;;;;;5112582;27;20533;-78
2023/07/03 10:38:50;;;;;;;3.73;3.03;;;29.50;94.80;;;;;;5116538;27;20512;-79
2023/07/03 10:41:28;;;;;;;3.83;3.27;;;29.60;92.20;;;;;;5112976;27;20533;-79
2023/07/03 10:44:06;;;;;;;2.93;2.60;;;29.70;94.30;;;;;;5120718;27;20978;-78
2023/07/03 10:46:37;;;;;;;4.70;3.77;;;29.70;94.50;;;;;;5109320;27;20528;-78
2023/07/03 10:49:09;;;;;;;5.23;4.00;;;29.80;93.60;;;;;;5115536;27;20431;-78
2023/07/03 10:51:40;;;;;;;3.40;3.20;;;29.90;92.20;;;;;;5103589;27;20484;-79
2023/07/03 10:54:21;;;;;;;3.63;3.33;;;29.90;93.00;;;;;;5111480;27;20538;-79
2023/07/03 10:56:51;;;;;;;5.30;3.67;;;30.00;94.60;;;;;;5106253;27;20670;-79
2023/07/03 10:59:26;;;;;;;4.43;4.03;;;30.00;93.80;;;;;;5107589;27;20450;-78
2023/07/03 11:02:17;;;;;;;4.27;3.33;;;29.90;95.60;;;;;;5115771;27;20441;-78
2023/07/03 11:04:57;;;;;;;4.50;3.73;;;29.80;95.00;;;;;;5115207;27;20445;-78
2023/07/03 11:08:04;;;;;;;4.27;3.87;;;29.90;95.10;;;;;;5119863;27;20454;-79
2023/07/03 11:10:56;;;;;;;3.97;3.57;;;30.00;95.20;;;;;;5106339;27;20473;-79
2023/07/03 11:13:38;;;;;;;4.23;3.20;;;30.00;94.00;;;;;;5115538;27;20514;-79
2023/07/03 11:16:13;;;;;;;5.00;3.97;;;30.10;93.80;;;;;;5118133;27;20438;-78
2023/07/03 11:19:07;;;;;;;5.13;3.50;;;30.10;94.80;;;;;;5112898;27;20432;-79
2023/07/03 11:21:53;;;;;;;3.83;3.23;;;30.20;95.00;;;;;;5120205;27;20928;-79
2023/07/03 11:24:22;;;;;;;3.87;3.47;;;30.30;93.20;;;;;;5119195;27;20481;-79
2023/07/03 11:27:24;;;;;;;4.30;3.50;;;30.40;93.90;;;;;;5115793;27;20454;-79
2023/07/03 11:29:53;;;;;;;4.70;3.73;;;30.50;92.10;;;;;;5053058;27;20836;-78
2023/07/03 11:32:20;;;;;;;3.40;3.10;;;30.50;93.00;;;;;;5111989;27;20496;-79
2023/07/03 11:34:51;;;;;;;3.37;2.90;;;30.60;94.20;;;;;;5117716;27;20438;-78
2023/07/03 11:37:36;;;;;;;3.60;3.30;;;30.50;94.10;;;;;;5113152;27;20450;-82
2023/07/03 11:40:24;;;;;;;6.47;4.03;;;30.50;92.70;;;;;;5116781;27;20479;-83
2023/07/03 11:43:17;;;;;;;3.90;3.57;;;30.50;94.50;;;;;;5113705;27;20528;-78
2023/07/03 11:45:58;;;;;;;6.43;3.40;;;30.40;94.60;;;;;;5073087;27;20808;-79
2023/07/03 11:48:32;;;;;;;4.10;3.70;;;30.00;95.50;;;;;;5115267;27;20445;-80
2023/07/03 11:51:05;;;;;;;3.53;3.23;;;29.80;95.50;;;;;;5113971;27;20515;-80
2023/07/03 11:53:51;;;;;;;3.67;3.37;;;29.50;96.00;;;;;;5116207;27;20449;-83
2023/07/03 11:56:35;;;;;;;9.40;4.00;;;29.50;95.20;;;;;;5115611;27;20452;-88
2023/07/03 11:59:17;;;;;;;4.43;3.40;;;29.70;94.90;;;;;;5114445;27;20455;-80
2023/07/03 12:01:43;;;;;;;4.10;3.70;;;29.40;95.80;;;;;;5119479;27;20496;-78
2023/07/03 12:04:09;;;;;;;4.07;3.70;;;29.40;96.00;;;;;;5107557;27;20456;-80
2023/07/03 12:06:40;;;;;;;4.37;3.20;;;29.70;88.90;;;;;;5114344;28;20968;-79
2023/07/03 12:09:21;;;;;;;4.23;3.60;;;29.80;93.20;;;;;;5120626;28;20434;-80
2023/07/03 12:11:59;;;;;;;3.50;3.20;;;29.60;94.90;;;;;;5119458;28;20457;-79
2023/07/03 12:15:00;;;;;;;4.27;3.87;;;29.60;95.00;;;;;;5118498;28;20441;-84
2023/07/03 12:17:35;;;;;;;4.30;3.90;;;29.70;95.50;;;;;;5095158;27;20473;-77
2023/07/03 12:20:21;;;;;;;4.20;3.70;;;29.90;93.00;;;;;;5115628;28;20464;-86
2023/07/03 12:22:48;;;;;;;3.77;3.40;;;29.90;95.40;;;;;;5112299;28;20472;-79
2023/07/03 12:25:25;;;;;;;4.60;3.53;;;29.70;95.30;;;;;;5117246;27;20435;-79
2023/07/03 12:27:52;;;;;;;6.00;3.33;;;29.40;95.60;;;;;;5120897;28;20457;-81
2023/07/03 12:30:27;;;;;;;5.23;3.53;;;29.40;96.10;;;;;;5118291;28;20446;-79
2023/07/03 12:32:54;;;;;;;4.30;4.00;;;29.30;95.90;;;;;;5118150;27;20549;-79
2023/07/03 12:35:25;;;;;;;3.70;3.37;;;29.60;94.60;;;;;;5112110;28;20969;-81
2023/07/03 12:37:54;;;;;;;6.30;3.73;;;29.80;95.70;;;;;;5121190;27;20507;-78
2023/07/03 12:40:21;;;;;;;3.53;3.10;;;29.60;96.10;;;;;;5116879;28;20508;-78
2023/07/03 12:42:49;;;;;;;4.10;3.37;;;29.40;96.20;;;;;;5111749;27;20476;-77
2023/07/03 12:45:19;;;;;;;3.63;3.33;;;29.20;96.50;;;;;;5116735;28;20437;-81
2023/07/03 12:47:46;;;;;;;3.57;3.27;;;29.20;96.00;;;;;;5111741;27;20824;-77
2023/07/03 12:50:15;;;;;;;5.30;3.70;;;29.30;96.40;;;;;;5112950;28;20530;-78
2023/07/03 12:52:40;;;;;;;4.30;3.40;;;29.30;96.50;;;;;;5114248;27;20444;-83
2023/07/03 12:55:07;;;;;;;3.63;3.33;;;29.50;92.30;;;;;;5116376;27;20425;-80